createdAt,value
2022-11-16T00:01:34.314Z,9.25
2022-11-16T00:04:04.360Z,9.29
2022-11-16T00:06:31.239Z,9.21
2022-11-16T00:09:20.133Z,9.29
2022-11-16T00:11:54.015Z,9.26
2022-11-16T00:14:23.135Z,9.10
2022-11-16T00:16:49.925Z,9.19
2022-11-16T00:19:17.115Z,9.22
2022-11-16T00:21:43.956Z,9.19
2022-11-16T00:24:16.111Z,9.06
2022-11-16T00:26:43.130Z,9.16
2022-11-16T00:29:15.868Z,9.11
2022-11-16T00:31:44.206Z,9.08
2022-11-16T00:34:11.051Z,9.14
2022-11-16T00:36:37.837Z,9.02
2022-11-16T00:39:05.083Z,8.72
2022-11-16T00:41:31.865Z,8.75
2022-11-16T00:43:58.655Z,8.61
2022-11-16T00:46:25.455Z,8.49
2022-11-16T00:48:52.296Z,8.60
2022-11-16T00:51:19.116Z,8.60
2022-11-16T00:53:45.943Z,8.63
2022-11-16T00:56:12.762Z,8.59
2022-11-16T00:58:39.559Z,8.58
2022-11-16T01:01:09.010Z,8.58
2022-11-16T01:03:37.255Z,8.57
2022-11-16T01:06:11.571Z,8.47
2022-11-16T01:08:40.550Z,8.55
2022-11-16T01:11:27.382Z,8.56
2022-11-16T01:13:55.616Z,8.61
2022-11-16T01:16:23.823Z,8.48
2022-11-16T01:18:53.459Z,8.59
2022-11-16T01:21:22.610Z,8.49
2022-11-16T01:23:50.335Z,8.27
2022-11-16T01:26:17.491Z,8.27
2022-11-16T01:28:44.539Z,8.43
2022-11-16T01:31:11.482Z,8.39
2022-11-16T01:33:38.764Z,8.24
2022-11-16T01:36:14.230Z,8.45
2022-11-16T01:38:46.505Z,8.46
2022-11-16T01:41:23.195Z,8.51
2022-11-16T01:44:06.066Z,8.49
2022-11-16T01:46:33.404Z,8.53
2022-11-16T01:49:11.660Z,8.63
2022-11-16T01:51:40.371Z,8.51
2022-11-16T01:54:10.389Z,8.60
2022-11-16T01:56:39.915Z,8.62
2022-11-16T01:59:07.411Z,8.69
2022-11-16T02:01:34.320Z,8.72
2022-11-16T02:04:01.171Z,8.68
2022-11-16T02:06:27.844Z,8.74
2022-11-16T02:09:57.302Z,8.73
2022-11-16T02:13:12.183Z,8.76
2022-11-16T02:16:05.991Z,8.78
2022-11-16T02:18:41.840Z,8.80
2022-11-16T02:21:33.502Z,8.72
2022-11-16T02:24:18.684Z,8.19
2022-11-16T02:27:19.697Z,8.34
2022-11-16T02:29:52.345Z,8.30
2022-11-16T02:32:36.119Z,8.47
2022-11-16T02:35:05.732Z,8.56
2022-11-16T02:37:37.961Z,8.53
2022-11-16T02:40:10.911Z,8.49
2022-11-16T02:43:06.208Z,8.63
2022-11-16T02:45:38.469Z,8.58
2022-11-16T02:48:13.214Z,8.55
2022-11-16T02:50:40.727Z,8.57
2022-11-16T02:53:07.652Z,8.62
2022-11-16T02:55:36.229Z,8.63
2022-11-16T02:58:07.514Z,8.71
2022-11-16T03:00:52.526Z,8.75
2022-11-16T03:03:30.241Z,8.76
2022-11-16T03:06:05.718Z,8.70
2022-11-16T03:08:43.031Z,8.63
2022-11-16T03:11:29.857Z,8.65
2022-11-16T03:14:03.696Z,8.66
2022-11-16T03:16:38.297Z,8.64
2022-11-16T03:19:10.874Z,8.62
2022-11-16T03:21:44.201Z,8.63
2022-11-16T03:24:11.142Z,8.26
2022-11-16T03:27:09.772Z,8.54
2022-11-16T03:29:51.565Z,8.65
2022-11-16T03:33:03.778Z,8.61
2022-11-16T03:35:52.780Z,8.61
2022-11-16T03:38:22.435Z,8.61
2022-11-16T03:40:51.016Z,8.68
2022-11-16T03:43:20.558Z,8.66
2022-11-16T03:45:47.770Z,7.96
2022-11-16T03:48:14.656Z,8.28
2022-11-16T03:50:42.525Z,8.53
2022-11-16T03:53:09.417Z,8.22
2022-11-16T03:55:36.254Z,7.94
2022-11-16T03:58:03.407Z,8.36
2022-11-16T04:00:30.266Z,8.43
2022-11-16T04:02:57.088Z,8.55
2022-11-16T04:05:43.041Z,8.60
2022-11-16T04:08:49.961Z,8.72
2022-11-16T04:11:39.376Z,8.79
2022-11-16T04:14:24.634Z,8.53
2022-11-16T04:17:10.017Z,8.64
2022-11-16T04:19:58.159Z,8.70
2022-11-16T04:22:50.217Z,8.40
2022-11-16T04:25:25.742Z,8.33
2022-11-16T04:28:12.907Z,8.60
2022-11-16T04:31:14.366Z,8.46
2022-11-16T04:33:59.728Z,8.49
2022-11-16T04:36:44.764Z,8.55
2022-11-16T04:39:11.649Z,8.59
2022-11-16T04:41:57.003Z,8.41
2022-11-16T04:44:29.732Z,8.64
2022-11-16T04:47:08.699Z,8.68
2022-11-16T04:49:35.476Z,8.76
2022-11-16T04:52:02.256Z,8.77
2022-11-16T04:54:29.071Z,8.79
2022-11-16T04:56:55.896Z,8.79
2022-11-16T04:59:22.721Z,8.85
2022-11-16T05:02:07.909Z,8.91
2022-11-16T05:04:40.638Z,8.93
2022-11-16T05:07:13.029Z,8.89
2022-11-16T05:09:43.097Z,8.90
2022-11-16T05:12:12.129Z,8.95
2022-11-16T05:14:39.001Z,8.99
2022-11-16T05:17:05.805Z,8.99
2022-11-16T05:19:51.413Z,8.98
2022-11-16T05:22:18.327Z,8.98
2022-11-16T05:24:45.433Z,8.92
2022-11-16T05:27:15.441Z,8.97
2022-11-16T05:29:43.860Z,8.98
2022-11-16T05:32:12.629Z,8.95
2022-11-16T05:34:40.051Z,8.76
2022-11-16T05:37:06.922Z,8.78
2022-11-16T05:39:33.883Z,8.80
2022-11-16T05:42:00.826Z,8.87
2022-11-16T05:44:27.850Z,8.92
2022-11-16T05:46:56.006Z,8.93
2022-11-16T05:49:23.879Z,8.92
2022-11-16T05:51:50.793Z,8.91
2022-11-16T05:54:21.371Z,8.94
2022-11-16T05:56:49.396Z,8.94
2022-11-16T05:59:18.940Z,8.96
2022-11-16T06:01:46.378Z,8.95
2022-11-16T06:04:14.121Z,8.91
2022-11-16T06:06:41.288Z,8.94
2022-11-16T06:09:10.882Z,8.90
2022-11-16T06:11:38.174Z,8.82
2022-11-16T06:14:05.750Z,8.83
2022-11-16T06:16:32.636Z,8.85
2022-11-16T06:19:00.340Z,8.82
2022-11-16T06:21:27.212Z,8.80
2022-11-16T06:23:54.264Z,8.84
2022-11-16T06:26:21.192Z,8.80
2022-11-16T06:28:48.145Z,8.80
2022-11-16T06:31:14.941Z,8.80
2022-11-16T06:33:41.893Z,8.77
2022-11-16T06:36:09.019Z,8.80
2022-11-16T06:38:36.161Z,8.83
2022-11-16T06:41:03.208Z,8.84
2022-11-16T06:43:30.056Z,8.85
2022-11-16T06:45:58.463Z,8.90
2022-11-16T06:48:25.328Z,8.87
2022-11-16T06:50:52.707Z,8.94
2022-11-16T06:53:23.560Z,8.97
2022-11-16T06:55:54.479Z,8.97
2022-11-16T06:58:21.263Z,9.06
2022-11-16T07:00:48.057Z,9.07
2022-11-16T07:03:14.888Z,9.06
2022-11-16T07:05:42.103Z,9.07
2022-11-16T07:08:09.576Z,9.11
2022-11-16T07:10:38.239Z,9.01
2022-11-16T07:13:05.573Z,9.02
2022-11-16T07:15:33.179Z,9.03
2022-11-16T07:18:05.580Z,9.06
2022-11-16T07:20:33.689Z,9.09
2022-11-16T07:23:02.435Z,9.16
2022-11-16T07:25:29.660Z,9.19
2022-11-16T07:27:58.327Z,9.27
2022-11-16T07:30:26.077Z,9.25
2022-11-16T07:32:58.815Z,9.26
2022-11-16T07:35:25.775Z,9.31
2022-11-16T07:37:52.571Z,9.29
2022-11-16T07:40:20.261Z,9.36
2022-11-16T07:42:47.517Z,9.35
2022-11-16T07:45:14.441Z,9.25
2022-11-16T07:47:41.275Z,9.31
2022-11-16T07:50:08.550Z,9.36
2022-11-16T07:52:35.366Z,9.46
2022-11-16T07:55:02.242Z,9.49
2022-11-16T07:57:29.383Z,9.43
2022-11-16T07:59:56.221Z,9.40
2022-11-16T08:02:23.246Z,9.44
2022-11-16T08:04:50.993Z,9.35
2022-11-16T08:07:17.897Z,9.40
2022-11-16T08:09:44.876Z,9.45
2022-11-16T08:12:11.883Z,9.46
2022-11-16T08:14:38.667Z,9.54
2022-11-16T08:17:05.743Z,9.57
2022-11-16T08:19:32.593Z,9.64
2022-11-16T08:21:59.395Z,9.63
2022-11-16T08:24:26.368Z,9.66
2022-11-16T08:26:54.139Z,9.69
2022-11-16T08:29:20.947Z,9.74
2022-11-16T08:31:47.718Z,9.64
2022-11-16T08:34:14.589Z,9.73
2022-11-16T08:36:41.530Z,9.69
2022-11-16T08:39:08.529Z,9.74
2022-11-16T08:41:37.512Z,9.74
2022-11-16T08:44:04.836Z,9.77
2022-11-16T08:46:31.628Z,9.80
2022-11-16T08:48:59.116Z,9.78
2022-11-16T08:51:26.350Z,9.73
2022-11-16T08:53:58.982Z,9.77
2022-11-16T08:56:27.242Z,9.80
2022-11-16T08:58:58.406Z,9.87
2022-11-16T09:01:28.477Z,9.81
2022-11-16T09:03:55.917Z,9.83
2022-11-16T09:06:25.886Z,9.92
2022-11-16T09:08:53.611Z,9.98
2022-11-16T09:11:23.280Z,10.02
2022-11-16T09:13:52.619Z,10.06
2022-11-16T09:16:21.112Z,10.02
2022-11-16T09:18:50.844Z,9.98
2022-11-16T09:21:24.176Z,9.91
2022-11-16T09:23:51.658Z,9.92
2022-11-16T09:26:23.035Z,9.90
2022-11-16T09:29:00.886Z,9.78
2022-11-16T09:31:29.209Z,9.97
2022-11-16T09:33:58.621Z,9.98
2022-11-16T09:36:27.782Z,10.07
2022-11-16T09:39:23.814Z,10.10
2022-11-16T09:42:19.006Z,10.10
2022-11-16T09:45:20.886Z,10.00
2022-11-16T09:47:59.298Z,10.09
2022-11-16T09:50:45.741Z,10.22
2022-11-16T09:53:33.017Z,10.29
2022-11-16T09:56:21.849Z,10.43
2022-11-16T09:59:22.787Z,10.62
2022-11-16T10:02:25.411Z,10.77
2022-11-16T10:05:14.730Z,10.95
2022-11-16T10:07:50.403Z,11.18
2022-11-16T10:10:34.798Z,11.04
2022-11-16T10:13:39.505Z,11.08
2022-11-16T10:16:31.148Z,11.22
2022-11-16T10:19:09.705Z,11.34
2022-11-16T10:22:10.444Z,11.00
2022-11-16T10:24:45.792Z,11.08
2022-11-16T10:27:34.479Z,11.30
2022-11-16T10:30:15.132Z,11.34
2022-11-16T10:32:47.834Z,11.45
2022-11-16T10:35:39.556Z,11.56
2022-11-16T10:38:18.469Z,11.61
2022-11-16T10:40:53.146Z,11.68
2022-11-16T10:43:24.662Z,11.65
2022-11-16T10:46:15.698Z,11.62
2022-11-16T10:49:16.650Z,11.74
2022-11-16T10:51:43.592Z,11.79
2022-11-16T10:54:15.589Z,11.85
2022-11-16T10:56:46.677Z,11.88
2022-11-16T10:59:17.111Z,11.95
2022-11-16T11:01:51.199Z,12.01
2022-11-16T11:04:31.177Z,12.04
2022-11-16T11:07:01.141Z,12.05
2022-11-16T11:09:41.661Z,12.08
2022-11-16T11:12:41.116Z,12.15
2022-11-16T11:15:10.603Z,12.19
2022-11-16T11:17:44.867Z,12.21
2022-11-16T11:20:17.815Z,12.25
2022-11-16T11:23:04.313Z,12.39
2022-11-16T11:25:41.443Z,12.55
2022-11-16T11:28:33.069Z,12.65
2022-11-16T11:31:05.932Z,12.72
2022-11-16T11:33:59.685Z,12.69
2022-11-16T11:36:43.062Z,12.71
2022-11-16T11:39:12.931Z,12.75
2022-11-16T11:42:14.843Z,12.72
2022-11-16T11:44:49.847Z,12.74
2022-11-16T11:47:59.977Z,12.76
2022-11-16T11:50:55.762Z,12.88
2022-11-16T11:53:55.393Z,12.87
2022-11-16T11:56:23.176Z,12.88
2022-11-16T11:58:51.596Z,13.02
2022-11-16T12:01:58.715Z,13.00
2022-11-16T12:04:31.320Z,13.08
2022-11-16T12:07:53.493Z,13.15
2022-11-16T12:10:31.167Z,13.25
2022-11-16T12:13:36.510Z,13.42
2022-11-16T12:16:37.771Z,13.50
2022-11-16T12:19:29.226Z,13.51
2022-11-16T12:22:52.491Z,13.54
2022-11-16T12:25:42.375Z,13.42
2022-11-16T12:28:26.648Z,13.42
2022-11-16T12:31:34.453Z,13.39
2022-11-16T12:34:41.891Z,13.38
2022-11-16T12:37:39.501Z,13.29
2022-11-16T12:40:58.003Z,13.18
2022-11-16T12:44:33.254Z,13.19
2022-11-16T12:47:37.695Z,13.20
2022-11-16T12:50:36.306Z,13.26
2022-11-16T12:53:42.064Z,13.31
2022-11-16T12:56:49.274Z,13.37
2022-11-16T12:59:44.856Z,13.39
2022-11-16T13:03:09.022Z,13.43
2022-11-16T13:05:50.001Z,13.48
2022-11-16T13:08:32.209Z,13.52
2022-11-16T13:11:27.552Z,13.59
2022-11-16T13:14:08.972Z,13.69
2022-11-16T13:16:35.830Z,13.85
2022-11-16T13:19:06.954Z,14.01
2022-11-16T13:22:13.666Z,14.17
2022-11-16T13:24:52.238Z,14.22
2022-11-16T13:27:38.324Z,14.30
2022-11-16T13:30:22.553Z,14.40
2022-11-16T13:33:26.121Z,14.61
2022-11-16T13:35:52.897Z,14.73
2022-11-16T13:38:53.031Z,15.27
2022-11-16T13:41:34.678Z,15.52
2022-11-16T13:44:05.486Z,15.50
2022-11-16T13:46:55.915Z,15.20
2022-11-16T13:49:35.959Z,15.75
2022-11-16T13:52:23.332Z,15.84
2022-11-16T13:54:54.740Z,15.84
2022-11-16T13:57:32.670Z,16.72
2022-11-16T14:00:02.357Z,17.67
2022-11-16T14:02:37.801Z,17.83
2022-11-16T14:05:40.062Z,17.34
2022-11-16T14:08:25.012Z,16.79
2022-11-16T14:10:51.712Z,16.40
2022-11-16T14:13:45.534Z,15.92
2022-11-16T14:16:15.322Z,15.53
2022-11-16T14:18:43.874Z,15.35
2022-11-16T14:21:16.633Z,15.17
2022-11-16T14:24:07.769Z,15.06
2022-11-16T14:26:55.938Z,14.89
2022-11-16T14:29:51.718Z,14.75
2022-11-16T14:32:24.183Z,14.55
2022-11-16T14:34:54.970Z,14.38
2022-11-16T14:37:21.647Z,14.32
2022-11-16T14:39:53.182Z,14.12
2022-11-16T14:42:38.259Z,14.03
2022-11-16T14:45:33.100Z,14.18
2022-11-16T14:48:19.279Z,14.43
2022-11-16T14:51:04.061Z,14.82
2022-11-16T14:53:32.295Z,15.31
2022-11-16T14:56:15.063Z,15.51
2022-11-16T14:58:57.525Z,15.47
2022-11-16T15:01:34.354Z,15.33
2022-11-16T15:04:04.923Z,15.03
2022-11-16T15:06:42.595Z,14.73
2022-11-16T15:09:21.432Z,14.41
2022-11-16T15:12:09.268Z,14.16
2022-11-16T15:14:52.687Z,13.90
2022-11-16T15:17:31.747Z,13.71
2022-11-16T15:20:04.833Z,13.51
2022-11-16T15:22:40.576Z,13.26
2022-11-16T15:25:49.481Z,13.06
2022-11-16T15:28:16.170Z,12.89
2022-11-16T15:30:48.730Z,12.71
2022-11-16T15:33:31.061Z,12.51
2022-11-16T15:35:58.969Z,12.33
2022-11-16T15:38:32.423Z,12.20
2022-11-16T15:41:02.319Z,12.10
2022-11-16T15:43:33.818Z,12.02
2022-11-16T15:46:02.197Z,11.83
2022-11-16T15:48:29.971Z,11.56
2022-11-16T15:51:19.971Z,11.44
2022-11-16T15:53:52.770Z,11.41
2022-11-16T15:56:30.567Z,11.29
2022-11-16T15:59:01.155Z,11.16
2022-11-16T16:01:30.120Z,11.09
2022-11-16T16:04:05.183Z,11.04
2022-11-16T16:06:51.633Z,10.94
2022-11-16T16:09:28.669Z,10.83
2022-11-16T16:12:23.167Z,10.80
2022-11-16T16:14:52.161Z,10.79
2022-11-16T16:17:28.386Z,10.84
2022-11-16T16:20:03.746Z,10.76
2022-11-16T16:22:36.967Z,10.71
2022-11-16T16:25:06.836Z,10.60
2022-11-16T16:27:40.539Z,10.54
2022-11-16T16:30:12.675Z,10.47
2022-11-16T16:32:40.380Z,10.34
2022-11-16T16:35:17.063Z,10.19
2022-11-16T16:37:44.130Z,10.12
2022-11-16T16:40:11.237Z,10.04
2022-11-16T16:42:38.053Z,10.06
2022-11-16T16:45:05.417Z,10.03
2022-11-16T16:47:32.507Z,9.99
2022-11-16T16:49:59.617Z,9.86
2022-11-16T16:52:27.637Z,9.70
2022-11-16T16:54:54.390Z,9.63
2022-11-16T16:57:21.181Z,9.62
2022-11-16T16:59:48.530Z,9.55
2022-11-16T17:02:16.647Z,9.50
2022-11-16T17:04:44.020Z,9.45
2022-11-16T17:07:10.815Z,9.32
2022-11-16T17:09:37.708Z,9.21
2022-11-16T17:12:04.970Z,9.19
2022-11-16T17:14:31.710Z,9.05
2022-11-16T17:17:00.652Z,9.11
2022-11-16T17:19:29.330Z,9.20
2022-11-16T17:21:56.356Z,9.27
2022-11-16T17:24:23.145Z,9.25
2022-11-16T17:26:50.502Z,9.19
2022-11-16T17:29:17.303Z,8.95
2022-11-16T17:31:46.866Z,8.97
2022-11-16T17:34:14.457Z,8.93
2022-11-16T17:36:42.644Z,8.87
2022-11-16T17:39:09.684Z,8.85
2022-11-16T17:41:37.080Z,8.83
2022-11-16T17:44:04.710Z,8.83
2022-11-16T17:46:31.654Z,8.84
2022-11-16T17:48:58.560Z,8.82
2022-11-16T17:51:26.024Z,8.77
2022-11-16T17:53:52.994Z,8.77
2022-11-16T17:56:23.550Z,8.78
2022-11-16T17:58:52.045Z,8.68
2022-11-16T18:01:19.160Z,8.57
2022-11-16T18:03:46.060Z,8.59
2022-11-16T18:06:18.877Z,8.54
2022-11-16T18:08:46.278Z,8.53
2022-11-16T18:11:22.339Z,8.54
2022-11-16T18:14:00.540Z,8.49
2022-11-16T18:16:32.626Z,8.52
2022-11-16T18:19:03.132Z,8.55
2022-11-16T18:21:30.389Z,8.60
2022-11-16T18:23:59.512Z,8.57
2022-11-16T18:26:26.388Z,8.59
2022-11-16T18:28:53.906Z,8.56
2022-11-16T18:31:23.812Z,8.57
2022-11-16T18:33:51.553Z,8.59
2022-11-16T18:36:20.289Z,8.40
2022-11-16T18:38:47.418Z,8.43
2022-11-16T18:41:20.011Z,8.42
2022-11-16T18:43:55.809Z,8.40
2022-11-16T18:46:28.947Z,8.40
2022-11-16T18:48:56.509Z,8.36
2022-11-16T18:51:26.046Z,8.34
2022-11-16T18:53:53.110Z,8.28
2022-11-16T18:56:20.068Z,8.21
2022-11-16T18:58:52.274Z,8.13
2022-11-16T19:01:23.104Z,7.98
2022-11-16T19:03:51.299Z,7.84
2022-11-16T19:06:18.724Z,7.77
2022-11-16T19:08:51.780Z,7.70
2022-11-16T19:11:21.261Z,7.65
2022-11-16T19:13:54.358Z,7.64
2022-11-16T19:16:21.945Z,7.64
2022-11-16T19:18:48.809Z,7.61
2022-11-16T19:21:18.465Z,7.59
2022-11-16T19:23:48.127Z,7.52
2022-11-16T19:26:17.655Z,7.52
2022-11-16T19:28:47.082Z,7.59
2022-11-16T19:31:24.160Z,7.63
2022-11-16T19:34:00.046Z,7.58
2022-11-16T19:36:29.309Z,7.49
2022-11-16T19:38:56.508Z,7.41
2022-11-16T19:41:24.884Z,7.24
2022-11-16T19:43:57.244Z,7.18
2022-11-16T19:46:26.808Z,7.12
2022-11-16T19:48:54.660Z,6.97
2022-11-16T19:51:24.932Z,6.98
2022-11-16T19:53:52.368Z,6.94
2022-11-16T19:56:22.445Z,6.88
2022-11-16T19:58:49.729Z,6.78
2022-11-16T20:01:19.132Z,6.78
2022-11-16T20:03:47.687Z,6.82
2022-11-16T20:06:24.250Z,6.88
2022-11-16T20:08:54.110Z,6.90
2022-11-16T20:11:24.493Z,6.88
2022-11-16T20:13:53.649Z,6.82
2022-11-16T20:16:23.625Z,6.76
2022-11-16T20:18:51.585Z,6.73
2022-11-16T20:21:33.059Z,6.69
2022-11-16T20:24:06.168Z,6.68
2022-11-16T20:26:35.169Z,6.67
2022-11-16T20:29:02.030Z,6.63
2022-11-16T20:31:31.432Z,6.62
2022-11-16T20:34:02.339Z,6.64
2022-11-16T20:36:30.849Z,6.63
2022-11-16T20:38:59.723Z,6.62
2022-11-16T20:41:32.166Z,6.57
2022-11-16T20:44:01.092Z,6.53
2022-11-16T20:46:31.325Z,6.50
2022-11-16T20:49:01.114Z,6.47
2022-11-16T20:51:30.356Z,6.43
2022-11-16T20:53:58.476Z,6.51
2022-11-16T20:56:27.151Z,6.58
2022-11-16T20:58:54.320Z,6.62
2022-11-16T21:01:33.699Z,6.69
2022-11-16T21:04:04.777Z,6.75
2022-11-16T21:06:33.113Z,6.85
2022-11-16T21:09:00.888Z,6.92
2022-11-16T21:11:30.595Z,6.95
2022-11-16T21:14:15.954Z,6.95
2022-11-16T21:16:42.822Z,6.88
2022-11-16T21:19:10.160Z,6.83
2022-11-16T21:21:38.451Z,6.83
2022-11-16T21:24:05.519Z,6.82
2022-11-16T21:26:33.493Z,6.79
2022-11-16T21:29:01.481Z,6.77
2022-11-16T21:31:34.184Z,6.65
2022-11-16T21:34:01.794Z,6.57
2022-11-16T21:36:31.132Z,6.49
2022-11-16T21:38:58.228Z,6.43
2022-11-16T21:41:25.964Z,6.36
2022-11-16T21:43:53.132Z,6.35
2022-11-16T21:46:26.109Z,6.37
2022-11-16T21:48:55.309Z,6.41
2022-11-16T21:51:25.129Z,6.37
2022-11-16T21:53:52.497Z,6.35
2022-11-16T21:56:22.522Z,6.37
2022-11-16T21:58:55.472Z,6.44
2022-11-16T22:01:23.922Z,6.49
2022-11-16T22:04:10.817Z,6.46
2022-11-16T22:06:56.049Z,6.44
2022-11-16T22:09:22.900Z,6.35
2022-11-16T22:11:49.723Z,6.35
2022-11-16T22:14:16.575Z,6.36
2022-11-16T22:16:43.354Z,6.33
2022-11-16T22:19:10.195Z,6.25
2022-11-16T22:21:36.940Z,6.27
2022-11-16T22:24:03.831Z,6.31
2022-11-16T22:26:30.709Z,6.35
2022-11-16T22:28:58.351Z,6.41
2022-11-16T22:31:25.127Z,6.44
2022-11-16T22:33:53.583Z,6.37
2022-11-16T22:36:20.533Z,6.22
2022-11-16T22:38:47.318Z,6.25
2022-11-16T22:41:14.197Z,6.25
2022-11-16T22:43:40.937Z,6.29
2022-11-16T22:46:10.800Z,6.27
2022-11-16T22:48:39.877Z,6.22
2022-11-16T22:51:14.867Z,6.22
2022-11-16T22:53:41.637Z,6.20
2022-11-16T22:56:10.488Z,6.20
2022-11-16T22:58:39.029Z,6.12
2022-11-16T23:01:08.513Z,6.12
2022-11-16T23:03:36.195Z,6.20
2022-11-16T23:06:04.106Z,6.27
2022-11-16T23:08:31.005Z,6.30
2022-11-16T23:11:38.980Z,6.40
2022-11-16T23:14:26.216Z,6.51
2022-11-16T23:16:53.067Z,6.58
2022-11-16T23:19:39.986Z,6.70
2022-11-16T23:22:28.618Z,6.69
2022-11-16T23:25:13.756Z,6.62
2022-11-16T23:27:57.870Z,6.72
2022-11-16T23:30:25.566Z,6.80
2022-11-16T23:32:52.869Z,6.83
2022-11-16T23:35:19.895Z,6.85
2022-11-16T23:37:56.277Z,6.88
2022-11-16T23:40:30.034Z,6.96
2022-11-16T23:43:15.700Z,6.99
2022-11-16T23:45:43.529Z,7.02
2022-11-16T23:48:14.960Z,7.08
2022-11-16T23:50:43.016Z,7.15
2022-11-16T23:53:10.506Z,7.08
2022-11-16T23:55:39.219Z,7.06
2022-11-16T23:58:07.899Z,7.05
